Jerome, Idaho
Current Conditions -  °F | °C
As of 11:53 PM on Monday 20 Oct 2014 (Local Time) from KJER Reporting Station
Few Clouds Few Clouds  
Wind Chill: 65°   Ceiling: Unl
Heat Index: 65°   Visibility: 10mi
Dew Point: 35°   Wind: 10mph
Humidity: 33%   Direction: 120°ESE
Pressure: 29.76"   Gusts: NA
Location:  42.72°N, 114.51°W
Report Text: KJER 210553Z AUTO 12009KT 10SM FEW110 18/02 A2976 RMK AO2 SLP041 T01830017 10250 20167 58006
Loading
Personal Weather Stations






























Interactive Weather Map
Tropical Storm Tracking
New forecast layout! Learn more

10-Day Weather Forecast

Advertisements
Track Severe Weather on mobile